createdAt,value
2019-03-24T00:00:47.297Z,986.13
2019-03-24T00:01:47.274Z,986.06
2019-03-24T00:02:47.270Z,986.10
2019-03-24T00:03:47.270Z,986.08
2019-03-24T00:04:47.267Z,986.03
2019-03-24T00:05:47.306Z,986.01
2019-03-24T00:06:47.259Z,986.03
2019-03-24T00:07:47.262Z,986.01
2019-03-24T00:08:47.255Z,986.00
2019-03-24T00:09:47.256Z,986.02
2019-03-24T00:10:47.291Z,986.03
2019-03-24T00:11:47.250Z,986.00
2019-03-24T00:12:47.247Z,986.01
2019-03-24T00:13:47.252Z,985.96
2019-03-24T00:14:47.248Z,985.95
2019-03-24T00:15:47.268Z,985.92
2019-03-24T00:16:47.242Z,985.92
2019-03-24T00:17:47.248Z,985.93
2019-03-24T00:18:47.236Z,985.93
2019-03-24T00:19:47.248Z,985.94
2019-03-24T00:20:47.271Z,985.91
2019-03-24T00:21:47.235Z,985.85
2019-03-24T00:22:47.229Z,985.88
2019-03-24T00:23:47.228Z,985.84
2019-03-24T00:24:47.227Z,985.85
2019-03-24T00:25:47.251Z,985.83
2019-03-24T00:26:47.225Z,985.87
2019-03-24T00:27:47.220Z,985.80
2019-03-24T00:28:47.217Z,985.79
2019-03-24T00:29:47.223Z,985.77
2019-03-24T00:30:47.240Z,985.76
2019-03-24T00:31:47.210Z,985.75
2019-03-24T00:32:47.236Z,985.69
2019-03-24T00:33:47.208Z,985.71
2019-03-24T00:34:48.151Z,985.67
2019-03-24T00:35:47.205Z,985.66
2019-03-24T00:36:47.231Z,985.63
2019-03-24T00:37:47.203Z,985.61
2019-03-24T00:38:47.193Z,985.59
2019-03-24T00:39:47.197Z,985.58
2019-03-24T00:40:47.223Z,985.55
2019-03-24T00:41:47.192Z,985.56
2019-03-24T00:42:47.216Z,985.54
2019-03-24T00:43:47.188Z,985.52
2019-03-24T00:44:47.195Z,985.52
2019-03-24T00:45:47.202Z,985.55
2019-03-24T00:46:47.213Z,985.61
2019-03-24T00:47:49.384Z,985.63
2019-03-24T00:48:47.177Z,985.65
2019-03-24T00:49:47.182Z,985.62
2019-03-24T00:50:47.206Z,985.62
2019-03-24T00:51:47.173Z,985.64
2019-03-24T00:52:47.173Z,985.64
2019-03-24T00:53:47.173Z,985.63
2019-03-24T00:54:47.167Z,985.64
2019-03-24T00:55:47.191Z,985.65
2019-03-24T00:56:47.164Z,985.65
2019-03-24T00:57:47.159Z,985.62
2019-03-24T00:58:47.158Z,985.60
2019-03-24T00:59:47.163Z,985.60
2019-03-24T01:00:47.185Z,985.64
2019-03-24T01:01:47.154Z,985.59
2019-03-24T01:02:47.154Z,985.60
2019-03-24T01:03:47.150Z,985.59
2019-03-24T01:04:47.150Z,985.59
2019-03-24T01:05:47.175Z,985.55
2019-03-24T01:06:47.144Z,985.56
2019-03-24T01:07:47.140Z,985.54
2019-03-24T01:08:47.153Z,985.48
2019-03-24T01:09:47.138Z,985.49
2019-03-24T01:10:47.171Z,985.50
2019-03-24T01:11:47.137Z,985.48
2019-03-24T01:12:47.135Z,985.44
2019-03-24T01:13:47.135Z,985.44
2019-03-24T01:14:47.134Z,985.48
2019-03-24T01:15:47.855Z,985.49
2019-03-24T01:16:47.126Z,985.50
2019-03-24T01:17:47.122Z,985.50
2019-03-24T01:18:47.131Z,985.49
2019-03-24T01:19:47.116Z,985.47
2019-03-24T01:20:47.147Z,985.48
2019-03-24T01:21:47.124Z,985.53
2019-03-24T01:22:47.115Z,985.47
2019-03-24T01:23:47.111Z,985.42
2019-03-24T01:24:47.112Z,985.40
2019-03-24T01:25:47.136Z,985.34
2019-03-24T01:26:47.108Z,985.36
2019-03-24T01:27:47.111Z,985.32
2019-03-24T01:28:47.107Z,985.34
2019-03-24T01:29:47.101Z,985.34
2019-03-24T01:30:47.130Z,985.38
2019-03-24T01:31:47.101Z,985.33
2019-03-24T01:32:47.097Z,985.34
2019-03-24T01:33:47.104Z,985.32
2019-03-24T01:34:47.096Z,985.33
2019-03-24T01:35:47.121Z,985.30
2019-03-24T01:36:47.094Z,985.28
2019-03-24T01:37:47.088Z,985.30
2019-03-24T01:38:47.090Z,985.29
2019-03-24T01:39:47.218Z,985.32
2019-03-24T01:40:47.113Z,985.29
2019-03-24T01:41:47.085Z,985.25
2019-03-24T01:42:47.080Z,985.29
2019-03-24T01:43:47.078Z,985.29
2019-03-24T01:44:47.077Z,985.23
2019-03-24T01:45:54.408Z,985.28
2019-03-24T01:46:47.070Z,985.26
2019-03-24T01:47:47.073Z,985.22
2019-03-24T01:48:47.069Z,985.17
2019-03-24T01:49:47.067Z,985.18
2019-03-24T01:50:47.090Z,985.15
2019-03-24T01:51:47.061Z,985.17
2019-03-24T01:52:47.054Z,985.14
2019-03-24T01:53:47.060Z,985.16
2019-03-24T01:54:47.090Z,985.13
2019-03-24T01:55:47.056Z,985.12
2019-03-24T01:56:47.052Z,985.15
2019-03-24T01:57:47.049Z,985.15
2019-03-24T01:58:47.075Z,985.15
2019-03-24T01:59:47.043Z,985.15
2019-03-24T02:00:47.078Z,985.13
2019-03-24T02:01:47.044Z,985.14
2019-03-24T02:02:47.043Z,985.16
2019-03-24T02:03:47.040Z,985.19
2019-03-24T02:04:47.069Z,985.14
2019-03-24T02:05:47.032Z,985.16
2019-03-24T02:06:47.031Z,985.13
2019-03-24T02:07:47.029Z,985.12
2019-03-24T02:08:47.028Z,985.13
2019-03-24T02:09:47.055Z,985.11
2019-03-24T02:10:47.024Z,985.15
2019-03-24T02:11:47.023Z,985.10
2019-03-24T02:12:47.020Z,985.10
2019-03-24T02:13:47.022Z,985.10
2019-03-24T02:14:47.047Z,985.07
2019-03-24T02:15:47.017Z,985.07
2019-03-24T02:16:47.013Z,985.09
2019-03-24T02:17:47.548Z,985.06
2019-03-24T02:18:47.010Z,985.02
2019-03-24T02:19:47.049Z,985.03
2019-03-24T02:20:47.004Z,985.04
2019-03-24T02:21:47.004Z,985.04
2019-03-24T02:22:47.001Z,985.04
2019-03-24T02:23:47.000Z,985.11
2019-03-24T02:24:47.031Z,985.06
2019-03-24T02:25:46.999Z,985.07
2019-03-24T02:26:46.994Z,985.04
2019-03-24T02:27:47.000Z,985.02
2019-03-24T02:28:46.989Z,985.02
2019-03-24T02:29:47.021Z,984.97
2019-03-24T02:30:46.990Z,985.01
2019-03-24T02:31:46.992Z,985.00
2019-03-24T02:32:46.984Z,985.01
2019-03-24T02:33:46.991Z,985.00
2019-03-24T02:34:47.018Z,985.01
2019-03-24T02:35:46.989Z,985.00
2019-03-24T02:36:46.985Z,985.02
2019-03-24T02:37:46.971Z,985.01
2019-03-24T02:38:46.969Z,985.01
2019-03-24T02:39:46.996Z,985.02
2019-03-24T02:40:46.971Z,984.98
2019-03-24T02:41:46.964Z,984.95
2019-03-24T02:42:46.971Z,984.94
2019-03-24T02:43:46.963Z,984.92
2019-03-24T02:44:46.968Z,984.88
2019-03-24T02:45:46.984Z,984.88
2019-03-24T02:46:46.959Z,984.88
2019-03-24T02:47:46.953Z,984.88
2019-03-24T02:48:46.952Z,984.88
2019-03-24T02:49:46.952Z,984.86
2019-03-24T02:50:46.981Z,984.88
2019-03-24T02:51:46.947Z,984.87
2019-03-24T02:52:46.949Z,984.88
2019-03-24T02:53:46.953Z,984.86
2019-03-24T02:54:46.971Z,984.86
2019-03-24T02:55:46.942Z,984.81
2019-03-24T02:56:46.939Z,984.81
2019-03-24T02:57:46.932Z,984.80
2019-03-24T02:58:46.935Z,984.78
2019-03-24T02:59:46.968Z,984.77
2019-03-24T03:00:46.931Z,984.81
2019-03-24T03:01:46.932Z,984.80
2019-03-24T03:02:46.928Z,984.86
2019-03-24T03:03:46.928Z,984.80
2019-03-24T03:04:46.948Z,984.84
2019-03-24T03:05:46.924Z,984.82
2019-03-24T03:06:46.919Z,984.82
2019-03-24T03:07:46.917Z,984.82
2019-03-24T03:08:46.923Z,984.82
2019-03-24T03:09:46.945Z,984.80
2019-03-24T03:10:46.915Z,984.79
2019-03-24T03:11:46.909Z,984.78
2019-03-24T03:12:47.877Z,984.79
2019-03-24T03:13:46.902Z,984.73
2019-03-24T03:14:46.933Z,984.72
2019-03-24T03:15:46.901Z,984.71
2019-03-24T03:16:46.898Z,984.66
2019-03-24T03:17:46.965Z,984.64
2019-03-24T03:18:46.896Z,984.63
2019-03-24T03:19:46.928Z,984.66
2019-03-24T03:20:46.899Z,984.64
2019-03-24T03:21:46.894Z,984.66
2019-03-24T03:22:46.894Z,984.65
2019-03-24T03:23:46.892Z,984.64
2019-03-24T03:24:46.920Z,984.58
2019-03-24T03:25:46.883Z,984.58
2019-03-24T03:26:46.885Z,984.61
2019-03-24T03:27:46.877Z,984.59
2019-03-24T03:28:46.879Z,984.57
2019-03-24T03:29:46.907Z,984.56
2019-03-24T03:30:46.875Z,984.58
2019-03-24T03:31:46.874Z,984.55
2019-03-24T03:32:46.869Z,984.55
2019-03-24T03:33:46.870Z,984.55
2019-03-24T03:34:46.895Z,984.56
2019-03-24T03:35:46.871Z,984.54
2019-03-24T03:36:46.893Z,984.53
2019-03-24T03:37:46.876Z,984.49
2019-03-24T03:38:46.865Z,984.49
2019-03-24T03:39:46.892Z,984.47
2019-03-24T03:40:46.863Z,984.44
2019-03-24T03:41:46.862Z,984.44
2019-03-24T03:42:46.849Z,984.46
2019-03-24T03:43:46.844Z,984.44
2019-03-24T03:44:46.881Z,984.44
2019-03-24T03:45:46.868Z,984.42
2019-03-24T03:46:52.333Z,984.43
2019-03-24T03:47:46.839Z,984.37
2019-03-24T03:48:46.843Z,984.37
2019-03-24T03:49:46.840Z,984.36
2019-03-24T03:50:46.864Z,984.35
2019-03-24T03:51:46.836Z,984.33
2019-03-24T03:52:46.835Z,984.29
2019-03-24T03:53:46.828Z,984.33
2019-03-24T03:54:46.839Z,984.29
2019-03-24T03:55:46.857Z,984.29
2019-03-24T03:56:46.823Z,984.30
2019-03-24T03:57:46.820Z,984.33
2019-03-24T03:58:46.827Z,984.30
2019-03-24T03:59:46.818Z,984.27
2019-03-24T04:00:46.850Z,984.27
2019-03-24T04:01:46.812Z,984.24
2019-03-24T04:02:46.812Z,984.23
2019-03-24T04:03:46.808Z,984.20
2019-03-24T04:04:46.811Z,984.17
2019-03-24T04:05:46.835Z,984.19
2019-03-24T04:06:46.807Z,984.21
2019-03-24T04:07:46.795Z,984.22
2019-03-24T04:08:46.800Z,984.23
2019-03-24T04:09:46.802Z,984.19
2019-03-24T04:10:46.820Z,984.22
2019-03-24T04:11:46.794Z,984.17
2019-03-24T04:12:46.796Z,984.18
2019-03-24T04:13:46.791Z,984.18
2019-03-24T04:14:46.790Z,984.19
2019-03-24T04:15:46.825Z,984.16
2019-03-24T04:16:46.785Z,984.13
2019-03-24T04:17:46.784Z,984.15
2019-03-24T04:18:46.783Z,984.09
2019-03-24T04:19:46.781Z,984.07
2019-03-24T04:20:46.808Z,984.06
2019-03-24T04:21:46.773Z,984.06
2019-03-24T04:22:46.769Z,984.06
2019-03-24T04:23:46.769Z,984.06
2019-03-24T04:24:46.765Z,984.04
2019-03-24T04:25:46.796Z,983.98
2019-03-24T04:26:46.765Z,983.99
2019-03-24T04:27:46.766Z,984.03
2019-03-24T04:28:46.759Z,984.01
2019-03-24T04:29:46.761Z,984.04
2019-03-24T04:30:46.782Z,984.03
2019-03-24T04:31:46.754Z,984.00
2019-03-24T04:32:46.751Z,983.98
2019-03-24T04:33:46.757Z,983.95
2019-03-24T04:34:46.743Z,983.99
2019-03-24T04:35:46.773Z,984.00
2019-03-24T04:36:46.745Z,984.00
2019-03-24T04:37:46.755Z,983.97
2019-03-24T04:38:46.743Z,983.94
2019-03-24T04:39:46.742Z,983.99
2019-03-24T04:40:46.763Z,983.91
2019-03-24T04:41:46.730Z,983.99
2019-03-24T04:42:46.735Z,984.00
2019-03-24T04:43:46.728Z,983.97
2019-03-24T04:44:46.725Z,984.01
2019-03-24T04:45:46.754Z,984.02
2019-03-24T04:46:46.751Z,984.03
2019-03-24T04:47:46.715Z,984.00
2019-03-24T04:48:46.722Z,983.99
2019-03-24T04:49:46.711Z,984.02
2019-03-24T04:50:46.714Z,983.98
2019-03-24T04:51:46.739Z,983.94
2019-03-24T04:52:46.706Z,983.99
2019-03-24T04:53:46.710Z,983.93
2019-03-24T04:54:46.702Z,983.92
2019-03-24T04:55:46.697Z,983.92
2019-03-24T04:56:46.750Z,983.96
2019-03-24T04:57:46.701Z,983.97
2019-03-24T04:58:46.694Z,983.92
2019-03-24T04:59:46.698Z,983.95
2019-03-24T05:00:46.693Z,983.92
2019-03-24T05:01:46.720Z,983.93
2019-03-24T05:02:46.693Z,983.92
2019-03-24T05:03:46.695Z,983.92
2019-03-24T05:04:47.291Z,983.89
2019-03-24T05:05:46.684Z,983.91
2019-03-24T05:06:46.738Z,983.92
2019-03-24T05:07:46.682Z,983.93
2019-03-24T05:08:46.673Z,983.93
2019-03-24T05:09:46.670Z,983.93
2019-03-24T05:10:46.670Z,983.91
2019-03-24T05:11:46.696Z,983.92
2019-03-24T05:12:46.699Z,983.91
2019-03-24T05:13:46.664Z,983.93
2019-03-24T05:14:46.661Z,983.95
2019-03-24T05:15:46.660Z,983.92
2019-03-24T05:16:46.659Z,983.93
2019-03-24T05:17:46.681Z,983.92
2019-03-24T05:18:46.657Z,983.92
2019-03-24T05:19:46.651Z,983.92
2019-03-24T05:20:46.649Z,983.89
2019-03-24T05:21:46.653Z,983.88
2019-03-24T05:22:46.672Z,983.90
2019-03-24T05:23:46.643Z,983.90
2019-03-24T05:24:46.645Z,983.84
2019-03-24T05:25:46.675Z,983.88
2019-03-24T05:26:46.636Z,983.88
2019-03-24T05:27:46.660Z,983.79
2019-03-24T05:28:46.632Z,983.80
2019-03-24T05:29:46.628Z,983.76
2019-03-24T05:30:46.628Z,983.76
2019-03-24T05:31:46.624Z,983.76
2019-03-24T05:32:46.648Z,983.72
2019-03-24T05:33:46.652Z,983.74
2019-03-24T05:34:46.616Z,983.75
2019-03-24T05:35:46.618Z,983.73
2019-03-24T05:36:46.613Z,983.70
2019-03-24T05:37:46.613Z,983.65
2019-03-24T05:38:46.637Z,983.69
2019-03-24T05:39:46.605Z,983.63
2019-03-24T05:40:46.605Z,983.62
2019-03-24T05:41:46.609Z,983.61
2019-03-24T05:42:46.604Z,983.60
2019-03-24T05:43:46.624Z,983.57
2019-03-24T05:44:46.702Z,983.56
2019-03-24T05:45:46.593Z,983.54
2019-03-24T05:46:46.593Z,983.50
2019-03-24T05:47:46.589Z,983.50
2019-03-24T05:48:46.613Z,983.51
2019-03-24T05:49:46.586Z,983.49
2019-03-24T05:50:46.585Z,983.50
2019-03-24T05:51:46.581Z,983.47
2019-03-24T05:52:46.577Z,983.49
2019-03-24T05:53:46.602Z,983.47
2019-03-24T05:54:46.573Z,983.44
2019-03-24T05:55:46.571Z,983.43
2019-03-24T05:56:46.570Z,983.39
2019-03-24T05:57:46.565Z,983.34
2019-03-24T05:58:46.593Z,983.37
2019-03-24T05:59:46.566Z,983.34
2019-03-24T06:00:46.558Z,983.41
2019-03-24T06:01:46.555Z,983.38
2019-03-24T06:02:46.554Z,983.37
2019-03-24T06:03:46.577Z,983.36
2019-03-24T06:04:46.550Z,983.37
2019-03-24T06:05:46.546Z,983.34
2019-03-24T06:06:46.546Z,983.29
2019-03-24T06:07:46.542Z,983.31
2019-03-24T06:08:46.565Z,983.31
2019-03-24T06:09:46.538Z,983.30
2019-03-24T06:10:46.534Z,983.29
2019-03-24T06:11:46.534Z,983.24
2019-03-24T06:12:46.531Z,983.27
2019-03-24T06:13:46.557Z,983.30
2019-03-24T06:14:46.529Z,983.30
2019-03-24T06:15:46.526Z,983.30
2019-03-24T06:16:46.523Z,983.33
2019-03-24T06:17:47.999Z,983.32
2019-03-24T06:18:46.542Z,983.32
2019-03-24T06:19:46.515Z,983.29
2019-03-24T06:20:46.510Z,983.31
2019-03-24T06:21:46.513Z,983.28
2019-03-24T06:22:46.507Z,983.30
2019-03-24T06:23:46.534Z,983.28
2019-03-24T06:24:46.500Z,983.29
2019-03-24T06:25:46.509Z,983.27
2019-03-24T06:26:46.495Z,983.26
2019-03-24T06:27:46.500Z,983.29
2019-03-24T06:28:46.521Z,983.24
2019-03-24T06:29:46.489Z,983.23
2019-03-24T06:30:46.488Z,983.24
2019-03-24T06:31:46.483Z,983.22
2019-03-24T06:32:46.485Z,983.24
2019-03-24T06:33:46.507Z,983.25
2019-03-24T06:34:46.512Z,983.25
2019-03-24T06:35:46.483Z,983.20
2019-03-24T06:36:46.471Z,983.19
2019-03-24T06:37:46.473Z,983.18
2019-03-24T06:38:46.467Z,983.21
2019-03-24T06:39:46.501Z,983.18
2019-03-24T06:40:46.467Z,983.21
2019-03-24T06:41:46.465Z,983.23
2019-03-24T06:42:46.463Z,983.21
2019-03-24T06:43:46.465Z,983.21
2019-03-24T06:44:46.484Z,983.20
2019-03-24T06:45:46.452Z,983.23
2019-03-24T06:46:46.449Z,983.21
2019-03-24T06:47:46.452Z,983.22
2019-03-24T06:48:46.446Z,983.23
2019-03-24T06:49:46.474Z,983.23
2019-03-24T06:50:46.440Z,983.22
2019-03-24T06:51:46.441Z,983.27
2019-03-24T06:52:46.436Z,983.27
2019-03-24T06:53:46.433Z,983.30
2019-03-24T06:54:46.457Z,983.31
2019-03-24T06:55:46.433Z,983.28
2019-03-24T06:56:46.425Z,983.31
2019-03-24T06:57:46.427Z,983.28
2019-03-24T06:58:46.427Z,983.32
2019-03-24T06:59:46.449Z,983.31
2019-03-24T07:00:46.421Z,983.27
2019-03-24T07:01:46.418Z,983.28
2019-03-24T07:02:46.417Z,983.30
2019-03-24T07:03:46.413Z,983.29
2019-03-24T07:04:46.610Z,983.30
2019-03-24T07:05:46.406Z,983.28
2019-03-24T07:06:46.408Z,983.33
2019-03-24T07:07:46.396Z,983.30
2019-03-24T07:08:46.398Z,983.35
2019-03-24T07:09:46.428Z,983.34
2019-03-24T07:10:46.398Z,983.25
2019-03-24T07:11:46.393Z,983.23
2019-03-24T07:12:46.395Z,983.26
2019-03-24T07:13:46.390Z,983.25
2019-03-24T07:14:46.421Z,983.30
2019-03-24T07:15:46.390Z,983.26
2019-03-24T07:16:46.384Z,983.27
2019-03-24T07:17:46.380Z,983.29
2019-03-24T07:18:46.411Z,983.34
2019-03-24T07:19:46.374Z,983.34
2019-03-24T07:20:46.409Z,983.27
2019-03-24T07:21:46.377Z,983.32
2019-03-24T07:22:46.370Z,983.33
2019-03-24T07:23:46.366Z,983.37
2019-03-24T07:24:46.396Z,983.36
2019-03-24T07:25:46.367Z,983.35
2019-03-24T07:26:46.386Z,983.36
2019-03-24T07:27:46.358Z,983.33
2019-03-24T07:28:46.359Z,983.33
2019-03-24T07:29:46.353Z,983.31
2019-03-24T07:30:46.381Z,983.31
2019-03-24T07:31:46.347Z,983.25
2019-03-24T07:32:46.351Z,983.29
2019-03-24T07:33:46.347Z,983.27
2019-03-24T07:34:46.342Z,983.26
2019-03-24T07:35:46.377Z,983.27
2019-03-24T07:36:46.347Z,983.27
2019-03-24T07:37:46.338Z,983.30
2019-03-24T07:38:46.338Z,983.35
2019-03-24T07:39:46.339Z,983.35
2019-03-24T07:40:46.366Z,983.31
2019-03-24T07:41:46.331Z,983.36
2019-03-24T07:42:46.334Z,983.37
2019-03-24T07:43:46.333Z,983.38
2019-03-24T07:44:46.527Z,983.34
2019-03-24T07:45:46.352Z,983.33
2019-03-24T07:46:46.320Z,983.38
2019-03-24T07:47:46.316Z,983.37
2019-03-24T07:48:46.315Z,983.37
2019-03-24T07:49:46.315Z,983.36
2019-03-24T07:50:46.341Z,983.34
2019-03-24T07:51:46.318Z,983.35
2019-03-24T07:52:46.309Z,983.32
2019-03-24T07:53:46.311Z,983.31
2019-03-24T07:54:46.316Z,983.33
2019-03-24T07:55:46.332Z,983.30
2019-03-24T07:56:46.306Z,983.29
2019-03-24T07:57:46.303Z,983.27
2019-03-24T07:58:46.293Z,983.28
2019-03-24T07:59:46.300Z,983.29
2019-03-24T08:00:46.322Z,983.28
2019-03-24T08:01:46.304Z,983.27
2019-03-24T08:02:51.007Z,983.30
2019-03-24T08:03:46.289Z,983.31
2019-03-24T08:04:46.284Z,983.31
2019-03-24T08:05:46.311Z,983.31
2019-03-24T08:06:46.283Z,983.28
2019-03-24T08:07:46.277Z,983.27
2019-03-24T08:08:46.272Z,983.30
2019-03-24T08:09:46.279Z,983.31
2019-03-24T08:10:46.304Z,983.27
2019-03-24T08:11:46.268Z,983.30
2019-03-24T08:12:46.291Z,983.30
2019-03-24T08:13:53.835Z,983.29
2019-03-24T08:14:46.265Z,983.33
2019-03-24T08:15:46.290Z,983.29
2019-03-24T08:16:46.264Z,983.25
2019-03-24T08:17:46.258Z,983.26
2019-03-24T08:18:46.261Z,983.23
2019-03-24T08:19:46.259Z,983.24
2019-03-24T08:20:46.281Z,983.23
2019-03-24T08:21:46.254Z,983.24
2019-03-24T08:22:46.252Z,983.17
2019-03-24T08:23:46.248Z,983.22
2019-03-24T08:24:46.250Z,983.19
2019-03-24T08:25:46.286Z,983.16
2019-03-24T08:26:46.805Z,983.13
2019-03-24T08:27:46.241Z,983.15
2019-03-24T08:28:46.247Z,983.18
2019-03-24T08:29:46.266Z,983.16
2019-03-24T08:30:46.237Z,983.13
2019-03-24T08:31:46.266Z,983.15
2019-03-24T08:32:46.233Z,983.14
2019-03-24T08:33:46.230Z,983.09
2019-03-24T08:34:48.354Z,983.10
2019-03-24T08:35:46.233Z,983.11
2019-03-24T08:36:46.255Z,983.05
2019-03-24T08:37:46.228Z,983.03
2019-03-24T08:38:46.222Z,983.01
2019-03-24T08:39:46.221Z,983.01
2019-03-24T08:40:46.250Z,983.07
2019-03-24T08:41:46.218Z,983.02
2019-03-24T08:42:46.221Z,983.03
2019-03-24T08:43:46.214Z,983.02
2019-03-24T08:44:46.216Z,982.98
2019-03-24T08:45:46.238Z,982.99
2019-03-24T08:46:47.200Z,982.96
2019-03-24T08:47:46.214Z,982.95
2019-03-24T08:48:46.206Z,982.96
2019-03-24T08:49:46.205Z,982.88
2019-03-24T08:50:46.233Z,982.85
2019-03-24T08:51:46.203Z,982.81
2019-03-24T08:52:46.198Z,982.84
2019-03-24T08:53:46.203Z,982.82
2019-03-24T08:54:46.194Z,982.77
2019-03-24T08:55:46.218Z,982.76
2019-03-24T08:56:46.197Z,982.79
2019-03-24T08:57:46.191Z,982.81
2019-03-24T08:58:46.187Z,982.83
2019-03-24T08:59:46.189Z,982.84
2019-03-24T09:00:46.215Z,982.84
2019-03-24T09:01:46.213Z,982.81
2019-03-24T09:02:46.229Z,982.80
2019-03-24T09:03:46.201Z,982.82
2019-03-24T09:04:46.178Z,982.78
2019-03-24T09:05:46.208Z,982.75
2019-03-24T09:06:46.178Z,982.75
2019-03-24T09:07:46.180Z,982.74
2019-03-24T09:08:46.176Z,982.69
2019-03-24T09:09:46.172Z,982.68
2019-03-24T09:10:46.195Z,982.73
2019-03-24T09:11:46.195Z,982.66
2019-03-24T09:12:46.232Z,982.70
2019-03-24T09:13:46.176Z,982.65
2019-03-24T09:14:46.160Z,982.63
2019-03-24T09:15:46.161Z,982.66
2019-03-24T09:16:46.187Z,982.63
2019-03-24T09:17:46.185Z,982.64
2019-03-24T09:18:52.675Z,982.62
2019-03-24T09:19:46.155Z,982.62
2019-03-24T09:20:46.155Z,982.63
2019-03-24T09:21:46.179Z,982.61
2019-03-24T09:22:46.154Z,982.67
2019-03-24T09:23:46.145Z,982.66
2019-03-24T09:24:46.147Z,982.64
2019-03-24T09:25:46.154Z,982.65
2019-03-24T09:26:46.172Z,982.66
2019-03-24T09:27:46.145Z,982.62
2019-03-24T09:28:46.140Z,982.64
2019-03-24T09:29:46.141Z,982.63
2019-03-24T09:30:46.136Z,982.61
2019-03-24T09:31:46.166Z,982.56
2019-03-24T09:32:46.134Z,982.50
2019-03-24T09:33:46.136Z,982.45
2019-03-24T09:34:46.136Z,982.47
2019-03-24T09:35:46.130Z,982.53
2019-03-24T09:36:46.156Z,982.54
2019-03-24T09:37:46.128Z,982.58
2019-03-24T09:38:46.123Z,982.58
2019-03-24T09:39:46.124Z,982.56
2019-03-24T09:40:46.126Z,982.56
2019-03-24T09:41:46.154Z,982.56
2019-03-24T09:42:46.121Z,982.56
2019-03-24T09:43:46.117Z,982.56
2019-03-24T09:44:46.117Z,982.54
2019-03-24T09:45:46.115Z,982.52
2019-03-24T09:46:46.136Z,982.54
2019-03-24T09:47:46.109Z,982.56
2019-03-24T09:48:46.111Z,982.56
2019-03-24T09:49:46.114Z,982.54
2019-03-24T09:50:46.110Z,982.56
2019-03-24T09:51:46.132Z,982.55
2019-03-24T09:52:46.125Z,982.52
2019-03-24T09:53:46.102Z,982.53
2019-03-24T09:54:46.098Z,982.56
2019-03-24T09:55:46.102Z,982.56
2019-03-24T09:56:46.097Z,982.57
2019-03-24T09:57:46.122Z,982.57
2019-03-24T09:58:46.096Z,982.57
2019-03-24T09:59:46.109Z,982.59
2019-03-24T10:00:46.089Z,982.54
2019-03-24T10:01:46.089Z,982.54
2019-03-24T10:02:46.111Z,982.53
2019-03-24T10:03:46.091Z,982.53
2019-03-24T10:04:46.085Z,982.52
2019-03-24T10:05:46.081Z,982.50
2019-03-24T10:06:46.086Z,982.57
2019-03-24T10:07:46.111Z,982.52
2019-03-24T10:08:47.360Z,982.52
2019-03-24T10:09:46.078Z,982.52
2019-03-24T10:10:46.078Z,982.50
2019-03-24T10:11:46.070Z,982.48
2019-03-24T10:12:46.098Z,982.49
2019-03-24T10:13:46.070Z,982.45
2019-03-24T10:14:46.071Z,982.46
2019-03-24T10:15:46.066Z,982.42
2019-03-24T10:16:46.097Z,982.49
2019-03-24T10:17:46.066Z,982.41
2019-03-24T10:18:46.094Z,982.41
2019-03-24T10:19:46.808Z,982.35
2019-03-24T10:20:46.060Z,982.38
2019-03-24T10:21:46.058Z,982.35
2019-03-24T10:22:46.058Z,982.32
2019-03-24T10:23:46.083Z,982.33
2019-03-24T10:24:46.057Z,982.35
2019-03-24T10:25:46.054Z,982.36
2019-03-24T10:26:46.052Z,982.35
2019-03-24T10:27:46.054Z,982.36
2019-03-24T10:28:46.075Z,982.37
2019-03-24T10:29:46.046Z,982.33
2019-03-24T10:30:46.048Z,982.29
2019-03-24T10:31:46.043Z,982.25
2019-03-24T10:32:46.047Z,982.25
2019-03-24T10:33:46.071Z,982.24
2019-03-24T10:34:46.043Z,982.21
2019-03-24T10:35:46.039Z,982.21
2019-03-24T10:36:46.035Z,982.24
2019-03-24T10:37:46.036Z,982.20
2019-03-24T10:38:46.060Z,982.21
2019-03-24T10:39:46.286Z,982.20
2019-03-24T10:40:46.035Z,982.21
2019-03-24T10:41:46.033Z,982.20
2019-03-24T10:42:46.061Z,982.18
2019-03-24T10:43:46.027Z,982.17
2019-03-24T10:44:46.027Z,982.18
2019-03-24T10:45:46.028Z,982.19
2019-03-24T10:46:46.024Z,982.16
2019-03-24T10:47:46.044Z,982.15
2019-03-24T10:48:46.049Z,982.13
2019-03-24T10:49:46.816Z,982.11
2019-03-24T10:50:46.019Z,982.08
2019-03-24T10:51:46.016Z,982.08
2019-03-24T10:52:46.033Z,982.07
2019-03-24T10:53:46.045Z,982.05
2019-03-24T10:54:46.021Z,982.00
2019-03-24T10:55:46.808Z,982.03
2019-03-24T10:56:46.012Z,982.03
2019-03-24T10:57:46.804Z,982.00
2019-03-24T10:58:46.040Z,981.98
2019-03-24T10:59:46.008Z,981.95
2019-03-24T11:00:46.004Z,981.95
2019-03-24T11:01:46.163Z,981.96
2019-03-24T11:02:46.038Z,981.96
2019-03-24T11:03:46.004Z,981.97
2019-03-24T11:04:46.000Z,981.97
2019-03-24T11:05:46.002Z,981.97
2019-03-24T11:06:45.995Z,981.99
2019-03-24T11:07:46.024Z,981.94
2019-03-24T11:08:45.992Z,981.94
2019-03-24T11:09:45.998Z,981.92
2019-03-24T11:10:46.809Z,981.95
2019-03-24T11:11:45.990Z,981.91
2019-03-24T11:12:46.021Z,981.93
2019-03-24T11:13:56.372Z,981.88
2019-03-24T11:14:45.989Z,981.93
2019-03-24T11:15:46.111Z,981.86
2019-03-24T11:16:45.988Z,981.86
2019-03-24T11:17:46.011Z,981.87
2019-03-24T11:18:45.982Z,981.84
2019-03-24T11:19:45.983Z,981.83
2019-03-24T11:20:45.982Z,981.82
2019-03-24T11:21:46.104Z,981.86
2019-03-24T11:22:46.005Z,981.82
2019-03-24T11:23:45.973Z,981.81
2019-03-24T11:24:45.978Z,981.85
2019-03-24T11:25:47.677Z,981.84
2019-03-24T11:26:48.251Z,981.84
2019-03-24T11:27:45.998Z,981.84
2019-03-24T11:28:46.004Z,981.80
2019-03-24T11:29:45.970Z,981.83
2019-03-24T11:30:47.340Z,981.82
2019-03-24T11:31:45.965Z,981.83
2019-03-24T11:32:45.966Z,981.82
2019-03-24T11:33:45.987Z,981.83
2019-03-24T11:34:47.684Z,981.82
2019-03-24T11:35:45.962Z,981.78
2019-03-24T11:36:46.861Z,981.77
2019-03-24T11:37:45.986Z,981.75
2019-03-24T11:38:46.818Z,981.73
2019-03-24T11:39:45.963Z,981.70
2019-03-24T11:40:45.955Z,981.68
2019-03-24T11:41:45.959Z,981.66
2019-03-24T11:42:46.456Z,981.65
2019-03-24T11:43:45.934Z,981.63
2019-03-24T11:44:45.971Z,981.60
2019-03-24T11:45:45.951Z,981.61
2019-03-24T11:46:45.951Z,981.57
2019-03-24T11:47:47.252Z,981.57
2019-03-24T11:48:46.677Z,981.53
2019-03-24T11:49:48.175Z,981.55
2019-03-24T11:50:45.976Z,981.56
2019-03-24T11:51:46.084Z,981.54
2019-03-24T11:52:45.972Z,981.54
2019-03-24T11:53:45.943Z,981.54
2019-03-24T11:54:46.220Z,981.49
2019-03-24T11:55:45.939Z,981.51
2019-03-24T11:56:45.939Z,981.49
2019-03-24T11:57:46.398Z,981.53
2019-03-24T11:58:46.726Z,981.47
2019-03-24T11:59:45.935Z,981.47
2019-03-24T12:00:45.932Z,981.42
2019-03-24T12:01:45.979Z,981.41
2019-03-24T12:02:45.960Z,981.39
2019-03-24T12:03:45.941Z,981.38
2019-03-24T12:04:45.944Z,981.38
2019-03-24T12:05:45.934Z,981.33
2019-03-24T12:06:45.928Z,981.34
2019-03-24T12:07:45.956Z,981.26
2019-03-24T12:08:45.930Z,981.35
2019-03-24T12:09:45.928Z,981.30
2019-03-24T12:10:45.934Z,981.24
2019-03-24T12:11:45.924Z,981.30
2019-03-24T12:12:45.953Z,981.30
2019-03-24T12:13:45.924Z,981.30
2019-03-24T12:14:45.925Z,981.32
2019-03-24T12:15:45.921Z,981.33
2019-03-24T12:16:45.922Z,981.35
2019-03-24T12:17:45.949Z,981.28
2019-03-24T12:18:46.824Z,981.29
2019-03-24T12:19:56.264Z,981.25
2019-03-24T12:20:45.917Z,981.27
2019-03-24T12:21:45.939Z,981.28
2019-03-24T12:22:45.941Z,981.26
2019-03-24T12:23:45.918Z,981.28
2019-03-24T12:24:45.917Z,981.30
2019-03-24T12:25:45.917Z,981.29
2019-03-24T12:26:45.915Z,981.26
2019-03-24T12:27:45.958Z,981.23
2019-03-24T12:28:45.913Z,981.17